Time;durP1;ratioP1;P1;durP2;ratioP2;P2;SDS_P1;SDS_P2;PMS_P1;PMS_P2;Temp;Humidity;BMP_temperature;BMP_pressure;BME280_temperature;BME280_humidity;BME280_pressure;Samples;Min_cycle;Max_cycle;Signal;HPM_P1;HPM_P2
2023/08/18 00:00:42;;;;;;;0.20;0.20;;;;;;;;;;5032445;28;20076;-72
2023/08/18 00:03:08;;;;;;;0.20;0.20;;;;;;;;;;5032077;28;20025;-72
2023/08/18 00:05:33;;;;;;;0.20;0.20;;;;;;;;;;5014623;28;20037;-71
2023/08/18 00:07:59;;;;;;;0.20;0.20;;;;;;;;;;5032160;28;20116;-71
2023/08/18 00:10:25;;;;;;;0.28;0.28;;;;;;;;;;5032401;28;20061;-70
2023/08/18 00:12:50;;;;;;;0.35;0.35;;;;;;;;;;5031423;28;20052;-71
2023/08/18 00:15:16;;;;;;;0.30;0.30;;;;;;;;;;5023374;28;20088;-70
2023/08/18 00:17:42;;;;;;;0.20;0.20;;;;;;;;;;5012607;28;20088;-70
2023/08/18 00:20:09;;;;;;;0.20;0.20;;;;;;;;;;5012223;28;20041;-69
2023/08/18 00:22:34;;;;;;;0.20;0.20;;;;;;;;;;5012359;28;20034;-68
2023/08/18 00:25:01;;;;;;;0.20;0.20;;;;;;;;;;5012571;28;20042;-70
2023/08/18 00:27:27;;;;;;;0.20;0.20;;;;;;;;;;5021197;28;20385;-72
2023/08/18 00:29:52;;;;;;;0.20;0.20;;;;;;;;;;5019585;28;20034;-70
2023/08/18 00:32:18;;;;;;;0.20;0.20;;;;;;;;;;5012187;28;20074;-69
2023/08/18 00:34:43;;;;;;;0.20;0.20;;;;;;;;;;5000950;28;20037;-70
2023/08/18 00:37:09;;;;;;;0.20;0.20;;;;;;;;;;5026134;28;20030;-69
2023/08/18 00:39:35;;;;;;;0.20;0.20;;;;;;;;;;5031621;28;20041;-70
2023/08/18 00:42:00;;;;;;;0.20;0.20;;;;;;;;;;5026598;28;20508;-70
2023/08/18 00:44:26;;;;;;;0.20;0.20;;;;;;;;;;5017392;28;20034;-70
2023/08/18 00:46:52;;;;;;;0.20;0.20;;;;;;;;;;5012265;28;20026;-70
2023/08/18 00:49:18;;;;;;;0.20;0.20;;;;;;;;;;4990523;28;20167;-71
2023/08/18 00:51:45;;;;;;;0.20;0.20;;;;;;;;;;5016137;28;20026;-70
2023/08/18 00:54:12;;;;;;;0.20;0.20;;;;;;;;;;5031706;28;20029;-73
2023/08/18 00:56:38;;;;;;;0.20;0.20;;;;;;;;;;5034185;28;20130;-71
2023/08/18 00:59:05;;;;;;;0.20;0.20;;;;;;;;;;5001316;28;20409;-72
2023/08/18 01:01:32;;;;;;;0.20;0.20;;;;;;;;;;5017262;28;20037;-70
2023/08/18 01:03:58;;;;;;;0.20;0.20;;;;;;;;;;5035164;28;20045;-71
2023/08/18 01:06:24;;;;;;;0.20;0.20;;;;;;;;;;5033241;28;20439;-70
2023/08/18 01:08:50;;;;;;;0.25;0.25;;;;;;;;;;5028861;28;20096;-70
2023/08/18 01:11:17;;;;;;;0.20;0.20;;;;;;;;;;5021790;28;20136;-70
2023/08/18 01:13:48;;;;;;;0.20;0.20;;;;;;;;;;5015221;28;20048;-70
2023/08/18 01:16:16;;;;;;;0.20;0.20;;;;;;;;;;5016709;28;20480;-70
2023/08/18 01:18:42;;;;;;;0.20;0.20;;;;;;;;;;5034872;28;20150;-71
2023/08/18 01:21:10;;;;;;;0.52;0.52;;;;;;;;;;5034619;28;20040;-71
2023/08/18 01:23:39;;;;;;;0.20;0.20;;;;;;;;;;5034866;28;20088;-71
2023/08/18 01:26:05;;;;;;;0.20;0.20;;;;;;;;;;5016804;28;20044;-70
2023/08/18 01:28:31;;;;;;;0.20;0.20;;;;;;;;;;5034700;28;20041;-70
2023/08/18 01:30:57;;;;;;;0.20;0.20;;;;;;;;;;5034298;28;20385;-72
2023/08/18 01:33:26;;;;;;;0.20;0.20;;;;;;;;;;5034839;28;20029;-72
2023/08/18 01:35:55;;;;;;;0.20;0.20;;;;;;;;;;5034776;28;20037;-70
2023/08/18 01:38:20;;;;;;;;;;;;;;;;;;5016915;28;20091;-70
2023/08/18 01:40:46;;;;;;;0.20;0.20;;;;;;;;;;5034665;28;19913;-72
2023/08/18 01:43:12;;;;;;;0.20;0.20;;;;;;;;;;5033079;28;20120;-72
2023/08/18 01:45:37;;;;;;;0.20;0.20;;;;;;;;;;5016831;28;20046;-72
2023/08/18 01:48:03;;;;;;;0.20;0.20;;;;;;;;;;5034238;28;20051;-72
2023/08/18 01:50:29;;;;;;;0.20;0.20;;;;;;;;;;5017027;28;20039;-70
2023/08/18 01:52:55;;;;;;;0.22;0.22;;;;;;;;;;5034198;28;20500;-72
2023/08/18 01:55:21;;;;;;;0.20;0.20;;;;;;;;;;5033936;28;20485;-71
2023/08/18 01:57:47;;;;;;;0.20;0.20;;;;;;;;;;5033832;28;20083;-71
2023/08/18 02:00:12;;;;;;;0.20;0.20;;;;;;;;;;5016295;28;20042;-72
2023/08/18 02:02:41;;;;;;;0.20;0.20;;;;;;;;;;5015921;28;20059;-71
2023/08/18 02:05:06;;;;;;;0.30;0.30;;;;;;;;;;5032812;28;20179;-71
2023/08/18 02:07:34;;;;;;;0.20;0.20;;;;;;;;;;5000339;28;20037;-72
2023/08/18 02:10:01;;;;;;;0.20;0.20;;;;;;;;;;5033866;28;20033;-71
2023/08/18 02:12:26;;;;;;;0.20;0.20;;;;;;;;;;5033849;28;20017;-72
2023/08/18 02:14:52;;;;;;;0.20;0.20;;;;;;;;;;5034462;28;20433;-71
2023/08/18 02:17:18;;;;;;;0.20;0.20;;;;;;;;;;5016600;28;20111;-70
2023/08/18 02:19:45;;;;;;;0.20;0.20;;;;;;;;;;5034257;28;20053;-72
2023/08/18 02:22:10;;;;;;;0.20;0.20;;;;;;;;;;5034014;28;20105;-72
2023/08/18 02:24:36;;;;;;;0.20;0.20;;;;;;;;;;5033998;28;20091;-71
2023/08/18 02:27:02;;;;;;;0.20;0.20;;;;;;;;;;5016177;28;20043;-72
2023/08/18 02:29:28;;;;;;;0.20;0.20;;;;;;;;;;5033936;28;20038;-71
2023/08/18 02:31:53;;;;;;;0.20;0.20;;;;;;;;;;5033983;28;20099;-70
2023/08/18 02:34:19;;;;;;;0.20;0.20;;;;;;;;;;5016113;28;20488;-71
2023/08/18 02:36:45;;;;;;;0.25;0.25;;;;;;;;;;5016021;28;20400;-71
2023/08/18 02:39:11;;;;;;;0.20;0.20;;;;;;;;;;5015982;28;20102;-72
2023/08/18 02:41:36;;;;;;;0.20;0.20;;;;;;;;;;5015986;28;20030;-72
2023/08/18 02:44:03;;;;;;;0.20;0.20;;;;;;;;;;5033534;28;20074;-72
2023/08/18 02:46:29;;;;;;;0.20;0.20;;;;;;;;;;5033413;28;20480;-71
2023/08/18 02:49:01;;;;;;;0.20;0.20;;;;;;;;;;5017136;28;20384;-71
2023/08/18 02:51:27;;;;;;;0.20;0.20;;;;;;;;;;5033772;28;20048;-72
2023/08/18 02:53:56;;;;;;;0.20;0.20;;;;;;;;;;5032513;28;20076;-71
2023/08/18 02:56:24;;;;;;;0.20;0.20;;;;;;;;;;5014417;28;20401;-70
2023/08/18 02:58:50;;;;;;;0.20;0.20;;;;;;;;;;5033448;28;20127;-70
2023/08/18 03:01:15;;;;;;;0.28;0.28;;;;;;;;;;5033255;28;20080;-70
2023/08/18 03:03:43;;;;;;;0.20;0.20;;;;;;;;;;4999380;28;20037;-70
2023/08/18 03:06:12;;;;;;;0.20;0.20;;;;;;;;;;5029421;28;20037;-71
2023/08/18 03:08:39;;;;;;;0.20;0.20;;;;;;;;;;5029359;28;20038;-71
2023/08/18 03:11:05;;;;;;;0.20;0.20;;;;;;;;;;5011549;28;20580;-69
2023/08/18 03:13:30;;;;;;;0.20;0.20;;;;;;;;;;5028821;28;20047;-69
2023/08/18 03:15:56;;;;;;;0.28;0.28;;;;;;;;;;5011637;28;20072;-69
2023/08/18 03:18:22;;;;;;;0.20;0.20;;;;;;;;;;5011727;28;20473;-69
2023/08/18 03:20:48;;;;;;;0.20;0.20;;;;;;;;;;5029444;28;20044;-71
2023/08/18 03:23:15;;;;;;;0.20;0.20;;;;;;;;;;5011919;28;20053;-70
2023/08/18 03:25:40;;;;;;;0.20;0.20;;;;;;;;;;5028951;28;20029;-70
2023/08/18 03:28:07;;;;;;;0.20;0.20;;;;;;;;;;5029002;28;20044;-70
2023/08/18 03:30:37;;;;;;;0.20;0.20;;;;;;;;;;5029297;28;20075;-70
2023/08/18 03:33:03;;;;;;;0.20;0.20;;;;;;;;;;5027347;28;20037;-70
2023/08/18 03:35:31;;;;;;;0.20;0.20;;;;;;;;;;5027738;28;20040;-70
2023/08/18 03:38:00;;;;;;;0.20;0.20;;;;;;;;;;5028749;28;20033;-69
2023/08/18 03:40:26;;;;;;;0.20;0.20;;;;;;;;;;5029234;28;20064;-69
2023/08/18 03:42:52;;;;;;;0.20;0.20;;;;;;;;;;5028933;28;20034;-68
2023/08/18 03:45:17;;;;;;;0.20;0.20;;;;;;;;;;5019119;28;20044;-70
2023/08/18 03:47:43;;;;;;;0.20;0.20;;;;;;;;;;5035296;28;20286;-71
2023/08/18 03:50:09;;;;;;;0.20;0.20;;;;;;;;;;5019090;28;20400;-73
2023/08/18 03:52:35;;;;;;;0.20;0.20;;;;;;;;;;5011892;28;20026;-69
2023/08/18 03:55:00;;;;;;;0.20;0.20;;;;;;;;;;5010716;28;20044;-70
2023/08/18 03:57:26;;;;;;;0.20;0.20;;;;;;;;;;5010941;28;20044;-70
2023/08/18 03:59:55;;;;;;;0.20;0.20;;;;;;;;;;5027452;28;20025;-71
2023/08/18 04:02:22;;;;;;;0.20;0.20;;;;;;;;;;5009988;28;20069;-71
2023/08/18 04:04:47;;;;;;;0.20;0.20;;;;;;;;;;4994282;28;20457;-71
2023/08/18 04:07:13;;;;;;;0.22;0.22;;;;;;;;;;5010581;28;20068;-71
2023/08/18 04:09:39;;;;;;;0.20;0.20;;;;;;;;;;5028367;28;20087;-74
2023/08/18 04:12:04;;;;;;;0.30;0.30;;;;;;;;;;5026846;28;20060;-71
2023/08/18 04:14:30;;;;;;;0.30;0.30;;;;;;;;;;5010628;28;20091;-70
2023/08/18 04:16:56;;;;;;;0.20;0.20;;;;;;;;;;5010541;28;20108;-71
2023/08/18 04:19:22;;;;;;;0.20;0.20;;;;;;;;;;5028185;28;20488;-71
2023/08/18 04:21:49;;;;;;;0.20;0.20;;;;;;;;;;5008471;28;20044;-72
2023/08/18 04:24:14;;;;;;;0.20;0.20;;;;;;;;;;5009154;28;20054;-69
2023/08/18 04:26:40;;;;;;;0.65;0.57;;;;;;;;;;5011999;28;20034;-71
2023/08/18 04:29:06;;;;;;;0.30;0.30;;;;;;;;;;5010412;28;20046;-71
2023/08/18 04:31:32;;;;;;;0.20;0.20;;;;;;;;;;4993874;28;20490;-71
2023/08/18 04:34:05;;;;;;;0.93;0.93;;;;;;;;;;4993877;28;20029;-71
2023/08/18 04:36:32;;;;;;;0.20;0.20;;;;;;;;;;4993853;28;20153;-71
2023/08/18 04:38:58;;;;;;;0.20;0.20;;;;;;;;;;5011388;28;20489;-71
2023/08/18 04:41:29;;;;;;;0.30;0.30;;;;;;;;;;4994109;28;20136;-71
2023/08/18 04:43:54;;;;;;;0.20;0.20;;;;;;;;;;5012864;28;20566;-72
2023/08/18 04:46:24;;;;;;;0.30;0.30;;;;;;;;;;5004936;28;20416;-71
2023/08/18 04:48:51;;;;;;;0.20;0.20;;;;;;;;;;5029469;28;20052;-71
2023/08/18 04:51:17;;;;;;;0.20;0.20;;;;;;;;;;5012808;28;20431;-71
2023/08/18 04:53:42;;;;;;;0.20;0.20;;;;;;;;;;5029856;28;20939;-71
2023/08/18 04:56:09;;;;;;;0.20;0.20;;;;;;;;;;5011703;28;20140;-71
2023/08/18 04:58:35;;;;;;;0.20;0.20;;;;;;;;;;4986818;28;20088;-71
2023/08/18 05:01:00;;;;;;;0.20;0.20;;;;;;;;;;4998651;28;20448;-72
2023/08/18 05:03:26;;;;;;;0.20;0.20;;;;;;;;;;5012287;28;20087;-72
2023/08/18 05:06:00;;;;;;;0.20;0.20;;;;;;;;;;5012809;28;20132;-71
2023/08/18 05:08:29;;;;;;;0.20;0.20;;;;;;;;;;5020830;28;20048;-71
2023/08/18 05:10:57;;;;;;;0.22;0.22;;;;;;;;;;5030707;28;20112;-73
2023/08/18 05:13:23;;;;;;;0.20;0.20;;;;;;;;;;5031083;28;20064;-73
2023/08/18 05:15:49;;;;;;;0.20;0.20;;;;;;;;;;5031494;28;20504;-71
2023/08/18 05:18:15;;;;;;;0.20;0.20;;;;;;;;;;5031163;28;20495;-71
2023/08/18 05:20:40;;;;;;;0.20;0.20;;;;;;;;;;5011716;28;20037;-70
2023/08/18 05:23:06;;;;;;;0.30;0.30;;;;;;;;;;5013255;28;20064;-71
2023/08/18 05:25:32;;;;;;;0.30;0.30;;;;;;;;;;5010972;28;20081;-69
2023/08/18 05:27:57;;;;;;;0.30;0.30;;;;;;;;;;5030517;28;20120;-70
2023/08/18 05:30:23;;;;;;;1.20;0.75;;;;;;;;;;5030662;28;20385;-71
2023/08/18 05:32:49;;;;;;;0.30;0.30;;;;;;;;;;5030408;28;20480;-71
2023/08/18 05:35:15;;;;;;;0.30;0.30;;;;;;;;;;5030357;28;20033;-71
2023/08/18 05:37:40;;;;;;;0.20;0.20;;;;;;;;;;5028465;28;20489;-71
2023/08/18 05:40:06;;;;;;;0.20;0.20;;;;;;;;;;5004168;28;20266;-70
2023/08/18 05:42:32;;;;;;;0.30;0.30;;;;;;;;;;5011956;28;20041;-70
2023/08/18 05:44:57;;;;;;;0.20;0.20;;;;;;;;;;5029101;28;20060;-71
2023/08/18 05:47:23;;;;;;;0.95;0.95;;;;;;;;;;5029645;28;20037;-69
2023/08/18 05:49:48;;;;;;;0.20;0.20;;;;;;;;;;5028194;28;20036;-70
2023/08/18 05:52:14;;;;;;;0.20;0.20;;;;;;;;;;5029390;28;20041;-69
2023/08/18 05:54:39;;;;;;;0.52;0.52;;;;;;;;;;5028656;28;20029;-69
2023/08/18 05:57:05;;;;;;;0.20;0.20;;;;;;;;;;5030054;28;20069;-71
2023/08/18 05:59:31;;;;;;;0.20;0.20;;;;;;;;;;5028956;28;20091;-70
2023/08/18 06:01:56;;;;;;;0.20;0.20;;;;;;;;;;5029048;28;20136;-71
2023/08/18 06:04:22;;;;;;;0.20;0.20;;;;;;;;;;5028659;28;20441;-71
2023/08/18 06:06:48;;;;;;;0.20;0.20;;;;;;;;;;5029304;28;20431;-71
2023/08/18 06:09:13;;;;;;;0.30;0.30;;;;;;;;;;5030124;28;20036;-69
2023/08/18 06:11:39;;;;;;;0.35;0.35;;;;;;;;;;5029389;28;20060;-72
2023/08/18 06:14:04;;;;;;;0.30;0.30;;;;;;;;;;5024907;28;20029;-69
2023/08/18 06:16:30;;;;;;;0.32;0.32;;;;;;;;;;5012319;28;20037;-71
2023/08/18 06:18:55;;;;;;;0.28;0.28;;;;;;;;;;5026729;28;20493;-69
2023/08/18 06:21:20;;;;;;;0.30;0.30;;;;;;;;;;5032123;28;20053;-70
2023/08/18 06:23:46;;;;;;;1.10;1.10;;;;;;;;;;5029062;28;20033;-70
2023/08/18 06:26:12;;;;;;;0.60;0.60;;;;;;;;;;5030503;28;20033;-70
2023/08/18 06:28:37;;;;;;;0.30;0.30;;;;;;;;;;5028525;28;20398;-70
2023/08/18 06:31:07;;;;;;;0.30;0.30;;;;;;;;;;5006392;28;20048;-70
2023/08/18 06:33:33;;;;;;;0.30;0.30;;;;;;;;;;5029691;28;20041;-70
2023/08/18 06:35:58;;;;;;;0.30;0.30;;;;;;;;;;5029087;28;20398;-70
2023/08/18 06:38:24;;;;;;;0.30;0.30;;;;;;;;;;5029468;28;20032;-69
2023/08/18 06:40:50;;;;;;;0.30;0.30;;;;;;;;;;5034132;28;20099;-71
2023/08/18 06:43:15;;;;;;;0.90;0.82;;;;;;;;;;5028340;28;20040;-71
2023/08/18 06:45:41;;;;;;;0.30;0.30;;;;;;;;;;5028363;28;20073;-70
2023/08/18 06:48:06;;;;;;;0.60;0.60;;;;;;;;;;5028414;28;20048;-70
2023/08/18 06:50:32;;;;;;;0.30;0.30;;;;;;;;;;5028453;28;20163;-70
2023/08/18 06:52:57;;;;;;;0.22;0.22;;;;;;;;;;5030091;28;20078;-70
2023/08/18 06:55:23;;;;;;;0.32;0.32;;;;;;;;;;5034086;28;20035;-70
2023/08/18 06:57:49;;;;;;;0.30;0.30;;;;;;;;;;5028741;28;20037;-70
2023/08/18 07:00:15;;;;;;;0.60;0.60;;;;;;;;;;5010018;28;20135;-71
2023/08/18 07:02:41;;;;;;;0.22;0.22;;;;;;;;;;5028415;28;20033;-71
2023/08/18 07:05:07;;;;;;;0.40;0.40;;;;;;;;;;5010141;28;20144;-72
2023/08/18 07:07:35;;;;;;;0.30;0.30;;;;;;;;;;5027417;28;20161;-71
2023/08/18 07:10:01;;;;;;;0.50;0.50;;;;;;;;;;5009837;28;20036;-71
2023/08/18 07:12:26;;;;;;;0.60;0.60;;;;;;;;;;5026143;28;20046;-70
2023/08/18 07:14:52;;;;;;;0.30;0.30;;;;;;;;;;5023668;28;20033;-70
2023/08/18 07:17:18;;;;;;;0.30;0.30;;;;;;;;;;5018664;28;20029;-70
2023/08/18 07:19:43;;;;;;;0.82;0.82;;;;;;;;;;5027274;28;20155;-70
2023/08/18 07:22:09;;;;;;;0.40;0.40;;;;;;;;;;5027503;28;20040;-70
2023/08/18 07:24:35;;;;;;;0.40;0.40;;;;;;;;;;5028376;28;20041;-70
2023/08/18 07:27:00;;;;;;;0.73;0.73;;;;;;;;;;5027763;28;20428;-71
2023/08/18 07:29:26;;;;;;;0.20;0.20;;;;;;;;;;5028360;28;20101;-69
2023/08/18 07:31:52;;;;;;;0.35;0.35;;;;;;;;;;5026775;28;20056;-73
2023/08/18 07:34:17;;;;;;;0.30;0.30;;;;;;;;;;5026589;28;20067;-72
2023/08/18 07:36:43;;;;;;;0.20;0.20;;;;;;;;;;5026067;28;20030;-72
2023/08/18 07:39:10;;;;;;;0.50;0.50;;;;;;;;;;5033605;28;20389;-71
2023/08/18 07:41:40;;;;;;;0.55;0.55;;;;;;;;;;5008458;28;20025;-71
2023/08/18 07:44:07;;;;;;;2.58;1.40;;;;;;;;;;5026737;28;20044;-74
2023/08/18 07:46:33;;;;;;;0.45;0.45;;;;;;;;;;5025885;28;20058;-74
2023/08/18 07:48:59;;;;;;;0.47;0.47;;;;;;;;;;5004131;28;20038;-74
2023/08/18 07:51:25;;;;;;;0.30;0.30;;;;;;;;;;5015600;28;20049;-74
2023/08/18 07:53:51;;;;;;;0.30;0.30;;;;;;;;;;5030074;28;20041;-77
2023/08/18 07:56:16;;;;;;;0.35;0.35;;;;;;;;;;5029887;28;20036;-73
2023/08/18 07:58:42;;;;;;;1.33;1.23;;;;;;;;;;5026074;28;20024;-74
2023/08/18 08:01:08;;;;;;;0.40;0.40;;;;;;;;;;5000681;28;20029;-74
2023/08/18 08:03:35;;;;;;;0.73;0.73;;;;;;;;;;5006437;28;20048;-74
2023/08/18 08:06:04;;;;;;;0.40;0.40;;;;;;;;;;5021903;28;20544;-73
2023/08/18 08:08:30;;;;;;;0.90;0.83;;;;;;;;;;5014575;28;20384;-74
2023/08/18 08:10:56;;;;;;;5.00;0.80;;;;;;;;;;5013060;28;20290;-75
2023/08/18 08:13:22;;;;;;;0.88;0.88;;;;;;;;;;5033208;28;20029;-74
2023/08/18 08:15:47;;;;;;;0.68;0.68;;;;;;;;;;5029513;28;20049;-74
2023/08/18 08:18:15;;;;;;;0.30;0.30;;;;;;;;;;5028089;28;20042;-74
2023/08/18 08:20:41;;;;;;;0.40;0.40;;;;;;;;;;5028200;28;20037;-77
2023/08/18 08:23:07;;;;;;;0.40;0.40;;;;;;;;;;5025708;28;20075;-75
2023/08/18 08:25:33;;;;;;;0.30;0.30;;;;;;;;;;5029926;28;20037;-74
2023/08/18 08:27:59;;;;;;;0.50;0.50;;;;;;;;;;5010667;28;20370;-75
2023/08/18 08:30:24;;;;;;;0.30;0.30;;;;;;;;;;5017617;28;20489;-74
2023/08/18 08:32:50;;;;;;;0.77;0.77;;;;;;;;;;5008257;28;20026;-74
2023/08/18 08:35:16;;;;;;;0.38;0.38;;;;;;;;;;4990881;28;20038;-74
2023/08/18 08:37:41;;;;;;;0.30;0.30;;;;;;;;;;5016857;28;20032;-76
2023/08/18 08:40:10;;;;;;;0.30;0.30;;;;;;;;;;5012352;28;20025;-75
2023/08/18 08:42:35;;;;;;;0.30;0.30;;;;;;;;;;5015205;28;20488;-74
2023/08/18 08:45:01;;;;;;;0.40;0.40;;;;;;;;;;5027942;28;20044;-76
2023/08/18 08:47:27;;;;;;;0.40;0.40;;;;;;;;;;5028050;28;20434;-75
2023/08/18 08:49:57;;;;;;;0.45;0.45;;;;;;;;;;5027101;28;20034;-75
2023/08/18 08:52:23;;;;;;;0.30;0.30;;;;;;;;;;5027279;28;20067;-74
2023/08/18 08:54:52;;;;;;;0.38;0.38;;;;;;;;;;5032856;28;20037;-73
2023/08/18 08:57:21;;;;;;;0.40;0.40;;;;;;;;;;5021910;28;20044;-76
2023/08/18 08:59:47;;;;;;;0.38;0.38;;;;;;;;;;5032620;28;20037;-74
2023/08/18 09:02:12;;;;;;;0.40;0.40;;;;;;;;;;5016181;28;20037;-76
2023/08/18 09:04:38;;;;;;;0.57;0.57;;;;;;;;;;5026245;28;20512;-74
2023/08/18 09:07:04;;;;;;;0.40;0.40;;;;;;;;;;5009004;28;20025;-75
2023/08/18 09:09:30;;;;;;;0.30;0.30;;;;;;;;;;5007694;28;20055;-74
2023/08/18 09:12:06;;;;;;;0.90;0.90;;;;;;;;;;5020015;28;20574;-75
2023/08/18 09:14:35;;;;;;;0.47;0.47;;;;;;;;;;5023967;28;20129;-74
2023/08/18 09:17:01;;;;;;;0.40;0.40;;;;;;;;;;5029712;28;20029;-74
2023/08/18 09:19:27;;;;;;;1.10;1.00;;;;;;;;;;5029166;28;20420;-74
2023/08/18 09:21:56;;;;;;;2.22;1.45;;;;;;;;;;5010335;28;20124;-73
2023/08/18 09:24:21;;;;;;;0.40;0.40;;;;;;;;;;5027166;28;20468;-73
2023/08/18 09:26:47;;;;;;;0.32;0.32;;;;;;;;;;5027587;28;20036;-73
2023/08/18 09:29:13;;;;;;;0.38;0.38;;;;;;;;;;5028189;28;20032;-74
2023/08/18 09:31:38;;;;;;;0.40;0.40;;;;;;;;;;5028413;28;20040;-73
2023/08/18 09:34:04;;;;;;;0.40;0.40;;;;;;;;;;5027993;28;20033;-74
2023/08/18 09:36:33;;;;;;;0.40;0.40;;;;;;;;;;5028526;28;20461;-73
2023/08/18 09:39:03;;;;;;;2.10;1.35;;;;;;;;;;5030491;28;20044;-74
2023/08/18 09:41:28;;;;;;;1.75;1.17;;;;;;;;;;5029050;28;20083;-74
2023/08/18 09:43:54;;;;;;;1.75;1.33;;;;;;;;;;5021522;28;20045;-73
2023/08/18 09:46:21;;;;;;;3.45;0.80;;;;;;;;;;5027634;28;20156;-73
2023/08/18 09:48:48;;;;;;;0.52;0.52;;;;;;;;;;5028853;28;20034;-74
2023/08/18 09:51:15;;;;;;;3.92;1.20;;;;;;;;;;5028889;28;20029;-75
2023/08/18 09:53:43;;;;;;;1.38;0.93;;;;;;;;;;5028717;28;20030;-75
2023/08/18 09:56:23;;;;;;;0.75;0.75;;;;;;;;;;5029736;28;20033;-75
2023/08/18 09:58:56;;;;;;;1.05;0.95;;;;;;;;;;5030609;28;20038;-74
2023/08/18 10:01:22;;;;;;;1.10;1.10;;;;;;;;;;5030177;28;20036;-74
2023/08/18 10:03:48;;;;;;;0.88;0.82;;;;;;;;;;5030020;28;20116;-74
2023/08/18 10:06:15;;;;;;;0.52;0.52;;;;;;;;;;5030252;28;20449;-73
2023/08/18 10:08:41;;;;;;;2.58;1.67;;;;;;;;;;5030239;28;20045;-74
2023/08/18 10:11:07;;;;;;;0.73;0.73;;;;;;;;;;5030028;28;20052;-74
2023/08/18 10:13:34;;;;;;;0.43;0.43;;;;;;;;;;5030593;28;20025;-73
2023/08/18 10:16:01;;;;;;;1.05;0.80;;;;;;;;;;5028050;28;20032;-75
2023/08/18 10:18:27;;;;;;;0.52;0.52;;;;;;;;;;5030287;28;20038;-74
2023/08/18 10:20:53;;;;;;;1.98;0.98;;;;;;;;;;5028378;28;20030;-73
2023/08/18 10:23:20;;;;;;;0.55;0.55;;;;;;;;;;5011835;28;20046;-75
2023/08/18 10:25:51;;;;;;;0.40;0.40;;;;;;;;;;5030030;28;20401;-73
2023/08/18 10:28:19;;;;;;;0.95;0.85;;;;;;;;;;5029538;28;20095;-76
2023/08/18 10:30:45;;;;;;;;;;;;;;;;;;5029985;28;20033;-73
2023/08/18 10:33:11;;;;;;;0.30;0.30;;;;;;;;;;5030066;28;19916;-76
2023/08/18 10:35:41;;;;;;;0.55;0.55;;;;;;;;;;5029551;28;20041;-74
2023/08/18 10:38:07;;;;;;;1.40;1.27;;;;;;;;;;5029904;28;20048;-73
2023/08/18 10:40:33;;;;;;;1.27;1.17;;;;;;;;;;5011321;28;20509;-75
2023/08/18 10:43:03;;;;;;;1.27;1.17;;;;;;;;;;5011483;28;20492;-73
2023/08/18 10:45:29;;;;;;;1.13;0.95;;;;;;;;;;5029161;28;20470;-74
2023/08/18 10:47:59;;;;;;;0.63;0.63;;;;;;;;;;5028847;28;20056;-74
2023/08/18 10:50:26;;;;;;;3.25;2.28;;;;;;;;;;5029520;28;20129;-75
2023/08/18 10:52:52;;;;;;;3.40;1.77;;;;;;;;;;5029982;28;20033;-75
2023/08/18 10:55:18;;;;;;;2.25;1.08;;;;;;;;;;5029092;28;20037;-75
2023/08/18 10:57:46;;;;;;;0.60;0.60;;;;;;;;;;5027894;28;20192;-73
2023/08/18 11:00:12;;;;;;;3.25;1.85;;;;;;;;;;5028771;28;20621;-74
2023/08/18 11:02:38;;;;;;;1.38;1.08;;;;;;;;;;5028288;28;20037;-73
2023/08/18 11:05:07;;;;;;;0.95;0.73;;;;;;;;;;5024268;28;20389;-74
2023/08/18 11:07:33;;;;;;;1.60;1.13;;;;;;;;;;5011904;28;20095;-74
2023/08/18 11:09:58;;;;;;;1.50;1.02;;;;;;;;;;5008976;28;20401;-73
2023/08/18 11:12:24;;;;;;;1.83;1.20;;;;;;;;;;5020961;28;20037;-74
2023/08/18 11:14:50;;;;;;;0.45;0.45;;;;;;;;;;5027711;28;20037;-74
2023/08/18 11:17:15;;;;;;;1.20;1.10;;;;;;;;;;5025384;28;20481;-73
2023/08/18 11:19:42;;;;;;;0.60;0.60;;;;;;;;;;5027157;28;20052;-74
2023/08/18 11:22:08;;;;;;;2.63;1.67;;;;;;;;;;5022215;28;20224;-74
2023/08/18 11:24:36;;;;;;;0.70;0.70;;;;;;;;;;5008200;28;20041;-75
2023/08/18 11:27:02;;;;;;;;;;;;;;;;;;4993653;28;20029;-76
2023/08/18 11:29:29;;;;;;;1.02;0.95;;;;;;;;;;5009057;28;20007;-76
2023/08/18 11:31:54;;;;;;;0.60;0.60;;;;;;;;;;5019835;28;20039;-75
2023/08/18 11:34:20;;;;;;;0.68;0.63;;;;;;;;;;5023664;28;20029;-76
2023/08/18 11:36:46;;;;;;;0.90;0.90;;;;;;;;;;5019432;28;20026;-76
2023/08/18 11:39:12;;;;;;;0.57;0.57;;;;;;;;;;4985057;28;20029;-75
2023/08/18 11:41:39;;;;;;;1.95;1.60;;;;;;;;;;5028552;28;20022;-76
2023/08/18 11:44:07;;;;;;;1.33;1.23;;;;;;;;;;5019245;28;20513;-76
2023/08/18 11:46:33;;;;;;;;;;;;;;;;;;5029653;28;20025;-76
2023/08/18 11:49:00;;;;;;;0.60;0.60;;;;;;;;;;5026631;28;19913;-72
2023/08/18 11:51:26;;;;;;;0.45;0.45;;;;;;;;;;5028925;28;20041;-72
2023/08/18 11:53:51;;;;;;;3.33;1.65;;;;;;;;;;5028615;28;20044;-75
2023/08/18 11:56:19;;;;;;;0.70;0.65;;;;;;;;;;5028508;28;20042;-72
2023/08/18 11:58:45;;;;;;;1.08;0.98;;;;;;;;;;5001045;28;20397;-72
2023/08/18 12:01:11;;;;;;;0.98;0.98;;;;;;;;;;5007660;28;20477;-71
2023/08/18 12:03:37;;;;;;;0.50;0.50;;;;;;;;;;5019877;28;20500;-72
2023/08/18 12:06:04;;;;;;;1.55;1.45;;;;;;;;;;5022313;28;20030;-73
2023/08/18 12:08:30;;;;;;;1.23;0.93;;;;;;;;;;5024218;28;20029;-73
2023/08/18 12:10:57;;;;;;;2.55;1.98;;;;;;;;;;5010565;28;20038;-73
2023/08/18 12:13:24;;;;;;;1.17;1.10;;;;;;;;;;5016199;28;20485;-70
2023/08/18 12:15:50;;;;;;;0.85;0.85;;;;;;;;;;5022903;28;20041;-73
2023/08/18 12:18:16;;;;;;;3.40;1.92;;;;;;;;;;5021756;28;20052;-81
2023/08/18 12:20:41;;;;;;;1.75;1.48;;;;;;;;;;5020366;28;20116;-72
2023/08/18 12:23:08;;;;;;;2.20;1.27;;;;;;;;;;5009245;28;20033;-73
2023/08/18 12:25:33;;;;;;;0.90;0.90;;;;;;;;;;5022078;28;20038;-73
2023/08/18 12:27:59;;;;;;;1.38;1.02;;;;;;;;;;5025511;28;20026;-72
2023/08/18 12:30:25;;;;;;;0.85;0.82;;;;;;;;;;5026336;28;20129;-73
2023/08/18 12:32:51;;;;;;;1.48;1.33;;;;;;;;;;5026564;28;20037;-74
2023/08/18 12:35:17;;;;;;;1.27;1.17;;;;;;;;;;5025815;28;20091;-74
2023/08/18 12:37:43;;;;;;;3.97;2.40;;;;;;;;;;5025673;28;20254;-75
2023/08/18 12:40:11;;;;;;;2.05;1.48;;;;;;;;;;5025814;28;20959;-73
2023/08/18 12:42:38;;;;;;;2.92;1.02;;;;;;;;;;5026062;28;20516;-73
2023/08/18 12:45:04;;;;;;;0.90;0.65;;;;;;;;;;4992765;28;20033;-74
2023/08/18 12:47:30;;;;;;;2.78;1.45;;;;;;;;;;5029516;28;20033;-72
2023/08/18 12:49:56;;;;;;;0.50;0.50;;;;;;;;;;5028752;28;20422;-73
2023/08/18 12:52:22;;;;;;;0.77;0.77;;;;;;;;;;5029512;28;20276;-73
2023/08/18 12:54:48;;;;;;;0.98;0.95;;;;;;;;;;5029430;28;20068;-71
2023/08/18 12:57:14;;;;;;;1.58;0.93;;;;;;;;;;5029422;28;20044;-72
2023/08/18 12:59:39;;;;;;;0.77;0.77;;;;;;;;;;5029292;28;20401;-77
2023/08/18 13:02:05;;;;;;;0.77;0.77;;;;;;;;;;5028975;28;20364;-75
2023/08/18 13:04:31;;;;;;;1.33;1.17;;;;;;;;;;5011609;28;20116;-76
2023/08/18 13:06:57;;;;;;;0.70;0.60;;;;;;;;;;5029187;28;20112;-72
2023/08/18 13:09:24;;;;;;;0.82;0.82;;;;;;;;;;5029192;28;20486;-73
2023/08/18 13:11:50;;;;;;;1.00;0.90;;;;;;;;;;5029501;28;20028;-72
2023/08/18 13:14:15;;;;;;;0.70;0.70;;;;;;;;;;5025508;28;20041;-72
2023/08/18 13:16:41;;;;;;;0.88;0.88;;;;;;;;;;5018559;28;20034;-76
2023/08/18 13:19:10;;;;;;;0.98;0.95;;;;;;;;;;5009491;28;20042;-74
2023/08/18 13:21:35;;;;;;;;;;;;;;;;;;5010302;28;20030;-71
2023/08/18 13:24:01;;;;;;;2.72;1.05;;;;;;;;;;5028229;28;19963;-73
2023/08/18 13:26:27;;;;;;;1.30;1.15;;;;;;;;;;5028877;28;20360;-73
2023/08/18 13:28:52;;;;;;;1.50;1.38;;;;;;;;;;5028777;28;20025;-74
2023/08/18 13:31:18;;;;;;;1.15;1.05;;;;;;;;;;5023889;28;20045;-73
2023/08/18 13:33:45;;;;;;;1.42;1.15;;;;;;;;;;5019183;28;20037;-73
2023/08/18 13:36:10;;;;;;;0.47;0.47;;;;;;;;;;5022123;28;20385;-73
2023/08/18 13:38:37;;;;;;;3.47;1.45;;;;;;;;;;5017255;28;20124;-76
2023/08/18 13:41:03;;;;;;;1.77;1.65;;;;;;;;;;5018810;28;20056;-74
2023/08/18 13:43:29;;;;;;;1.20;1.10;;;;;;;;;;5022213;28;20048;-74
2023/08/18 13:45:56;;;;;;;2.58;1.40;;;;;;;;;;5018687;28;20042;-72
2023/08/18 13:48:23;;;;;;;2.22;0.93;;;;;;;;;;5022796;28;20405;-74
2023/08/18 13:50:49;;;;;;;0.63;0.63;;;;;;;;;;4995184;28;20392;-79
2023/08/18 13:53:15;;;;;;;0.52;0.52;;;;;;;;;;5021257;28;20030;-72
2023/08/18 13:55:43;;;;;;;1.33;1.23;;;;;;;;;;5017684;28;20025;-74
2023/08/18 13:58:09;;;;;;;0.63;0.63;;;;;;;;;;5019705;28;20045;-72
2023/08/18 14:00:35;;;;;;;0.85;0.82;;;;;;;;;;5018640;28;20033;-72
2023/08/18 14:03:01;;;;;;;1.20;1.00;;;;;;;;;;5019943;28;20052;-72
2023/08/18 14:05:26;;;;;;;0.80;0.80;;;;;;;;;;5027958;28;20044;-72
2023/08/18 14:07:52;;;;;;;1.02;1.00;;;;;;;;;;5032385;28;20033;-74
2023/08/18 14:10:17;;;;;;;1.08;0.70;;;;;;;;;;5024700;28;20041;-73
2023/08/18 14:12:47;;;;;;;0.60;0.60;;;;;;;;;;5008077;28;20052;-73
2023/08/18 14:15:13;;;;;;;1.65;1.35;;;;;;;;;;5032555;28;20038;-72
2023/08/18 14:17:44;;;;;;;1.55;0.98;;;;;;;;;;4998931;28;20036;-74
2023/08/18 14:20:14;;;;;;;1.98;1.27;;;;;;;;;;5014455;28;20033;-75
2023/08/18 14:22:44;;;;;;;2.15;1.77;;;;;;;;;;5028091;28;20044;-73
2023/08/18 14:25:10;;;;;;;1.15;1.00;;;;;;;;;;5009247;28;20040;-71
2023/08/18 14:27:36;;;;;;;4.25;1.77;;;;;;;;;;5027947;28;20029;-72
2023/08/18 14:30:03;;;;;;;1.23;1.05;;;;;;;;;;5022548;28;20033;-72
2023/08/18 14:32:30;;;;;;;1.05;0.98;;;;;;;;;;5024811;28;20023;-73
2023/08/18 14:34:56;;;;;;;0.95;0.90;;;;;;;;;;5038015;28;20036;-82
2023/08/18 14:37:28;;;;;;;1.48;1.38;;;;;;;;;;5047194;28;20045;-72
2023/08/18 14:39:54;;;;;;;0.38;0.38;;;;;;;;;;5005571;28;20029;-72